Terminal Aerodrome Forecast
Issued by NWS Grand Forks, ND

Home | Current Version | Previous Version | Text Only | Print | Product List | Glossary Off
Versions: 1 2 3 4 5 6 7 8 9 10 11 12 13 14 15 16 17 18 19 20

122
FTUS43 KFGF 231727
TAFGFK
TAF
KGFK 231727Z 2318/2418 10013KT P6SM BKN060 BKN130
     FM232000 10014KT P6SM VCSH BKN040
     FM240000 11012KT P6SM -SHRA OVC035
     FM240200 11012KT P6SM VCSH OVC025
     FM240600 12012KT P6SM OVC015
     FM241300 14013KT P6SM OVC008
     FM241700 15016G23KT P6SM BKN015=

USA.gov is the U.S. government's official web portal to all federal, state and local government web resources and services.